sensor_id;sensor_type;location;lat;lon;timestamp;P1;durP1;ratioP1;P2;durP2;ratioP2
76846;SDS011;65813;49.546;8.644;2023-06-10T03:46:22;7.78;;;6.15;;
76846;SDS011;65813;49.546;8.644;2023-06-10T03:50:23;7.30;;;5.77;;
76846;SDS011;65813;49.546;8.644;2023-06-10T03:54:24;7.53;;;5.63;;
76846;SDS011;65813;49.546;8.644;2023-06-10T03:58:25;7.47;;;6.10;;
76846;SDS011;65813;49.546;8.644;2023-06-10T04:02:25;9.32;;;6.20;;
76846;SDS011;65813;49.546;8.644;2023-06-10T04:06:26;6.93;;;5.50;;
76846;SDS011;65813;49.546;8.644;2023-06-10T04:10:28;8.55;;;5.78;;
76846;SDS011;65813;49.546;8.644;2023-06-10T04:14:28;7.37;;;6.40;;
76846;SDS011;65813;49.546;8.644;2023-06-10T04:18:29;7.60;;;6.30;;
76846;SDS011;65813;49.546;8.644;2023-06-10T04:22:29;8.50;;;6.30;;
76846;SDS011;65813;49.546;8.644;2023-06-10T04:26:29;7.73;;;6.40;;
76846;SDS011;65813;49.546;8.644;2023-06-10T04:30:30;7.37;;;6.33;;
76846;SDS011;65813;49.546;8.644;2023-06-10T04:34:31;7.30;;;6.35;;
76846;SDS011;65813;49.546;8.644;2023-06-10T04:38:31;7.30;;;6.20;;
76846;SDS011;65813;49.546;8.644;2023-06-10T04:42:31;8.33;;;6.57;;
76846;SDS011;65813;49.546;8.644;2023-06-10T04:46:32;8.20;;;5.70;;
76846;SDS011;65813;49.546;8.644;2023-06-10T04:50:33;8.07;;;6.10;;
76846;SDS011;65813;49.546;8.644;2023-06-10T04:54:33;7.23;;;5.77;;
76846;SDS011;65813;49.546;8.644;2023-06-10T04:58:33;7.10;;;6.10;;
76846;SDS011;65813;49.546;8.644;2023-06-10T05:02:34;6.90;;;6.17;;
76846;SDS011;65813;49.546;8.644;2023-06-10T05:06:34;9.07;;;5.93;;
76846;SDS011;65813;49.546;8.644;2023-06-10T05:10:36;8.73;;;6.40;;
76846;SDS011;65813;49.546;8.644;2023-06-10T05:14:36;8.10;;;6.17;;
76846;SDS011;65813;49.546;8.644;2023-06-10T05:18:36;8.07;;;6.80;;
76846;SDS011;65813;49.546;8.644;2023-06-10T05:22:37;9.00;;;6.90;;
76846;SDS011;65813;49.546;8.644;2023-06-10T05:26:37;8.43;;;6.18;;
76846;SDS011;65813;49.546;8.644;2023-06-10T05:30:38;8.02;;;6.55;;
76846;SDS011;65813;49.546;8.644;2023-06-10T05:34:38;9.27;;;7.45;;
76846;SDS011;65813;49.546;8.644;2023-06-10T05:38:38;8.77;;;6.80;;
76846;SDS011;65813;49.546;8.644;2023-06-10T05:42:39;10.23;;;7.10;;
76846;SDS011;65813;49.546;8.644;2023-06-10T05:46:40;11.02;;;7.03;;
76846;SDS011;65813;49.546;8.644;2023-06-10T05:50:40;7.87;;;6.97;;
76846;SDS011;65813;49.546;8.644;2023-06-10T05:54:42;7.57;;;6.15;;
76846;SDS011;65813;49.546;8.644;2023-06-10T05:58:42;8.90;;;7.37;;
76846;SDS011;65813;49.546;8.644;2023-06-10T06:02:43;8.13;;;7.03;;
76846;SDS011;65813;49.546;8.644;2023-06-10T06:06:43;9.33;;;6.90;;
76846;SDS011;65813;49.546;8.644;2023-06-10T06:10:47;8.97;;;7.07;;
76846;SDS011;65813;49.546;8.644;2023-06-10T06:14:50;9.52;;;7.05;;
76846;SDS011;65813;49.546;8.644;2023-06-10T06:18:50;8.40;;;6.47;;
76846;SDS011;65813;49.546;8.644;2023-06-10T06:22:50;9.07;;;6.67;;
76846;SDS011;65813;49.546;8.644;2023-06-10T06:26:51;7.43;;;6.30;;
76846;SDS011;65813;49.546;8.644;2023-06-10T06:30:51;7.90;;;6.27;;
76846;SDS011;65813;49.546;8.644;2023-06-10T06:34:51;7.27;;;6.03;;
76846;SDS011;65813;49.546;8.644;2023-06-10T06:38:54;9.80;;;6.50;;
76846;SDS011;65813;49.546;8.644;2023-06-10T06:42:54;8.95;;;5.82;;
76846;SDS011;65813;49.546;8.644;2023-06-10T06:46:54;8.77;;;6.30;;
76846;SDS011;65813;49.546;8.644;2023-06-10T06:50:55;7.83;;;6.10;;
76846;SDS011;65813;49.546;8.644;2023-06-10T06:54:56;7.85;;;6.18;;
76846;SDS011;65813;49.546;8.644;2023-06-10T06:58:56;7.13;;;5.70;;
76846;SDS011;65813;49.546;8.644;2023-06-10T07:02:57;7.57;;;5.93;;
76846;SDS011;65813;49.546;8.644;2023-06-10T07:06:57;7.00;;;5.85;;
76846;SDS011;65813;49.546;8.644;2023-06-10T07:10:58;8.38;;;6.03;;
76846;SDS011;65813;49.546;8.644;2023-06-10T07:14:58;6.90;;;5.73;;
76846;SDS011;65813;49.546;8.644;2023-06-10T07:18:58;7.43;;;5.57;;
76846;SDS011;65813;49.546;8.644;2023-06-10T07:22:59;7.67;;;5.90;;
76846;SDS011;65813;49.546;8.644;2023-06-10T07:26:59;6.97;;;5.68;;
76846;SDS011;65813;49.546;8.644;2023-06-10T07:30:59;7.78;;;5.78;;
76846;SDS011;65813;49.546;8.644;2023-06-10T07:35:00;7.00;;;5.70;;
76846;SDS011;65813;49.546;8.644;2023-06-10T07:39:00;7.30;;;5.47;;
76846;SDS011;65813;49.546;8.644;2023-06-10T07:43:00;7.70;;;5.50;;
76846;SDS011;65813;49.546;8.644;2023-06-10T07:47:01;7.40;;;5.30;;
76846;SDS011;65813;49.546;8.644;2023-06-10T07:51:03;7.43;;;5.80;;
76846;SDS011;65813;49.546;8.644;2023-06-10T07:55:04;6.67;;;5.10;;
76846;SDS011;65813;49.546;8.644;2023-06-10T07:59:04;7.53;;;5.68;;
76846;SDS011;65813;49.546;8.644;2023-06-10T08:03:05;6.87;;;5.27;;
76846;SDS011;65813;49.546;8.644;2023-06-10T08:07:05;7.20;;;4.87;;
76846;SDS011;65813;49.546;8.644;2023-06-10T08:11:05;6.90;;;5.35;;
76846;SDS011;65813;49.546;8.644;2023-06-10T08:15:06;6.73;;;5.27;;
76846;SDS011;65813;49.546;8.644;2023-06-10T08:19:06;9.48;;;5.82;;
76846;SDS011;65813;49.546;8.644;2023-06-10T08:23:09;7.55;;;5.80;;
76846;SDS011;65813;49.546;8.644;2023-06-10T08:27:09;7.00;;;5.63;;
76846;SDS011;65813;49.546;8.644;2023-06-10T08:31:10;8.52;;;5.40;;
76846;SDS011;65813;49.546;8.644;2023-06-10T08:35:10;7.33;;;5.20;;
76846;SDS011;65813;49.546;8.644;2023-06-10T08:39:11;7.83;;;5.30;;
76846;SDS011;65813;49.546;8.644;2023-06-10T08:43:20;7.40;;;5.33;;
76846;SDS011;65813;49.546;8.644;2023-06-10T08:47:29;6.25;;;5.32;;
76846;SDS011;65813;49.546;8.644;2023-06-10T08:51:31;9.23;;;5.70;;
76846;SDS011;65813;49.546;8.644;2023-06-10T08:55:36;6.93;;;5.20;;
76846;SDS011;65813;49.546;8.644;2023-06-10T08:59:38;7.25;;;5.15;;
76846;SDS011;65813;49.546;8.644;2023-06-10T09:03:39;6.82;;;5.40;;
76846;SDS011;65813;49.546;8.644;2023-06-10T09:07:41;7.93;;;5.53;;
76846;SDS011;65813;49.546;8.644;2023-06-10T09:11:43;9.68;;;5.22;;
76846;SDS011;65813;49.546;8.644;2023-06-10T09:15:43;6.47;;;5.30;;
76846;SDS011;65813;49.546;8.644;2023-06-10T09:19:44;6.75;;;4.82;;
76846;SDS011;65813;49.546;8.644;2023-06-10T09:23:46;9.57;;;5.93;;
76846;SDS011;65813;49.546;8.644;2023-06-10T09:27:48;6.80;;;5.10;;
76846;SDS011;65813;49.546;8.644;2023-06-10T09:31:54;6.22;;;4.97;;
76846;SDS011;65813;49.546;8.644;2023-06-10T09:35:54;6.47;;;5.20;;
76846;SDS011;65813;49.546;8.644;2023-06-10T09:44:14;6.18;;;4.80;;
76846;SDS011;65813;49.546;8.644;2023-06-10T09:48:16;7.22;;;5.45;;
76846;SDS011;65813;49.546;8.644;2023-06-10T09:52:25;7.23;;;5.00;;
76846;SDS011;65813;49.546;8.644;2023-06-10T09:56:36;6.05;;;5.45;;
76846;SDS011;65813;49.546;8.644;2023-06-10T10:00:37;6.28;;;5.28;;
76846;SDS011;65813;49.546;8.644;2023-06-10T10:04:37;8.50;;;5.73;;
76846;SDS011;65813;49.546;8.644;2023-06-10T10:08:38;7.27;;;5.93;;
76846;SDS011;65813;49.546;8.644;2023-06-10T10:12:38;6.40;;;4.83;;
76846;SDS011;65813;49.546;8.644;2023-06-10T10:16:40;7.45;;;5.45;;
76846;SDS011;65813;49.546;8.644;2023-06-10T10:20:50;5.50;;;4.80;;
76846;SDS011;65813;49.546;8.644;2023-06-10T10:24:56;5.82;;;4.47;;
76846;SDS011;65813;49.546;8.644;2023-06-10T10:29:10;5.85;;;4.82;;
76846;SDS011;65813;49.546;8.644;2023-06-10T10:33:29;6.28;;;4.20;;
76846;SDS011;65813;49.546;8.644;2023-06-10T10:37:33;6.63;;;4.65;;
76846;SDS011;65813;49.546;8.644;2023-06-10T10:41:34;7.53;;;4.60;;
76846;SDS011;65813;49.546;8.644;2023-06-10T10:45:38;5.55;;;4.28;;
76846;SDS011;65813;49.546;8.644;2023-06-10T10:49:38;7.37;;;4.30;;
76846;SDS011;65813;49.546;8.644;2023-06-10T10:53:43;4.88;;;4.05;;
76846;SDS011;65813;49.546;8.644;2023-06-10T10:57:44;6.20;;;4.13;;
76846;SDS011;65813;49.546;8.644;2023-06-10T11:01:53;4.72;;;3.75;;
76846;SDS011;65813;49.546;8.644;2023-06-10T11:05:53;5.30;;;3.97;;
76846;SDS011;65813;49.546;8.644;2023-06-10T11:10:02;5.07;;;3.47;;
76846;SDS011;65813;49.546;8.644;2023-06-10T11:14:10;4.75;;;3.70;;
76846;SDS011;65813;49.546;8.644;2023-06-10T11:18:20;6.63;;;3.97;;
76846;SDS011;65813;49.546;8.644;2023-06-10T11:22:27;5.40;;;3.95;;
76846;SDS011;65813;49.546;8.644;2023-06-10T11:30:34;5.82;;;3.83;;
76846;SDS011;65813;49.546;8.644;2023-06-10T11:34:35;6.40;;;3.90;;
76846;SDS011;65813;49.546;8.644;2023-06-10T11:38:35;5.35;;;4.10;;
76846;SDS011;65813;49.546;8.644;2023-06-10T11:42:42;5.88;;;4.18;;
76846;SDS011;65813;49.546;8.644;2023-06-10T11:46:44;7.00;;;4.03;;
76846;SDS011;65813;49.546;8.644;2023-06-10T11:50:45;5.18;;;3.85;;
76846;SDS011;65813;49.546;8.644;2023-06-10T11:54:52;6.97;;;4.13;;
76846;SDS011;65813;49.546;8.644;2023-06-10T11:59:01;5.00;;;3.45;;
76846;SDS011;65813;49.546;8.644;2023-06-10T12:03:07;6.65;;;4.45;;
76846;SDS011;65813;49.546;8.644;2023-06-10T12:07:07;4.80;;;3.97;;
76846;SDS011;65813;49.546;8.644;2023-06-10T12:11:07;6.25;;;4.20;;
76846;SDS011;65813;49.546;8.644;2023-06-10T12:15:08;5.22;;;4.50;;
76846;SDS011;65813;49.546;8.644;2023-06-10T12:19:09;5.00;;;4.25;;
76846;SDS011;65813;49.546;8.644;2023-06-10T12:23:10;5.27;;;3.93;;
76846;SDS011;65813;49.546;8.644;2023-06-10T12:27:11;5.10;;;3.70;;
76846;SDS011;65813;49.546;8.644;2023-06-10T12:31:12;5.70;;;3.90;;
76846;SDS011;65813;49.546;8.644;2023-06-10T12:35:15;7.10;;;3.93;;
76846;SDS011;65813;49.546;8.644;2023-06-10T12:39:17;6.47;;;3.75;;
76846;SDS011;65813;49.546;8.644;2023-06-10T12:43:21;4.90;;;3.70;;
76846;SDS011;65813;49.546;8.644;2023-06-10T12:47:28;5.22;;;4.05;;
76846;SDS011;65813;49.546;8.644;2023-06-10T12:51:31;5.88;;;3.90;;
76846;SDS011;65813;49.546;8.644;2023-06-10T12:55:32;4.77;;;3.97;;
76846;SDS011;65813;49.546;8.644;2023-06-10T12:59:33;5.88;;;3.50;;
76846;SDS011;65813;49.546;8.644;2023-06-10T13:03:33;5.90;;;4.15;;
76846;SDS011;65813;49.546;8.644;2023-06-10T13:07:33;5.00;;;3.77;;
76846;SDS011;65813;49.546;8.644;2023-06-10T13:11:34;5.53;;;4.00;;
76846;SDS011;65813;49.546;8.644;2023-06-10T13:15:35;5.38;;;3.88;;
76846;SDS011;65813;49.546;8.644;2023-06-10T13:19:38;5.53;;;4.03;;
76846;SDS011;65813;49.546;8.644;2023-06-10T13:23:38;6.47;;;4.40;;
76846;SDS011;65813;49.546;8.644;2023-06-10T13:27:39;6.55;;;3.88;;
76846;SDS011;65813;49.546;8.644;2023-06-10T13:31:39;7.05;;;3.80;;
76846;SDS011;65813;49.546;8.644;2023-06-10T13:35:40;6.05;;;4.10;;
76846;SDS011;65813;49.546;8.644;2023-06-10T13:39:41;4.82;;;3.55;;
76846;SDS011;65813;49.546;8.644;2023-06-10T13:43:41;4.30;;;3.43;;
76846;SDS011;65813;49.546;8.644;2023-06-10T13:47:42;5.10;;;3.70;;
76846;SDS011;65813;49.546;8.644;2023-06-10T13:51:42;5.10;;;4.00;;
76846;SDS011;65813;49.546;8.644;2023-06-10T13:55:43;5.33;;;4.10;;
76846;SDS011;65813;49.546;8.644;2023-06-10T13:59:43;4.72;;;3.50;;
76846;SDS011;65813;49.546;8.644;2023-06-10T14:03:43;6.20;;;3.58;;
76846;SDS011;65813;49.546;8.644;2023-06-10T14:07:44;5.68;;;3.40;;
76846;SDS011;65813;49.546;8.644;2023-06-10T14:11:44;5.60;;;3.83;;
76846;SDS011;65813;49.546;8.644;2023-06-10T14:15:44;5.03;;;3.43;;
76846;SDS011;65813;49.546;8.644;2023-06-10T14:19:45;5.07;;;3.53;;
76846;SDS011;65813;49.546;8.644;2023-06-10T14:23:45;5.60;;;3.55;;
76846;SDS011;65813;49.546;8.644;2023-06-10T14:27:46;6.20;;;4.20;;
76846;SDS011;65813;49.546;8.644;2023-06-10T14:31:47;5.10;;;3.90;;
76846;SDS011;65813;49.546;8.644;2023-06-10T14:35:47;4.90;;;3.93;;
76846;SDS011;65813;49.546;8.644;2023-06-10T14:39:47;6.30;;;3.90;;
76846;SDS011;65813;49.546;8.644;2023-06-10T14:43:48;5.43;;;3.63;;
76846;SDS011;65813;49.546;8.644;2023-06-10T14:47:48;5.80;;;4.30;;
76846;SDS011;65813;49.546;8.644;2023-06-10T14:51:48;5.28;;;3.97;;
76846;SDS011;65813;49.546;8.644;2023-06-10T14:55:50;6.25;;;3.83;;
76846;SDS011;65813;49.546;8.644;2023-06-10T14:59:50;5.03;;;3.77;;
76846;SDS011;65813;49.546;8.644;2023-06-10T15:03:50;5.85;;;3.80;;
76846;SDS011;65813;49.546;8.644;2023-06-10T15:07:51;5.67;;;4.07;;
76846;SDS011;65813;49.546;8.644;2023-06-10T15:11:51;4.87;;;3.90;;
76846;SDS011;65813;49.546;8.644;2023-06-10T15:15:51;6.13;;;4.20;;
76846;SDS011;65813;49.546;8.644;2023-06-10T15:19:52;5.65;;;3.97;;
76846;SDS011;65813;49.546;8.644;2023-06-10T15:23:52;5.57;;;3.90;;
76846;SDS011;65813;49.546;8.644;2023-06-10T15:27:53;5.47;;;4.40;;
76846;SDS011;65813;49.546;8.644;2023-06-10T15:31:53;5.53;;;3.80;;
76846;SDS011;65813;49.546;8.644;2023-06-10T15:35:53;5.80;;;4.33;;
76846;SDS011;65813;49.546;8.644;2023-06-10T15:39:54;4.83;;;3.83;;
76846;SDS011;65813;49.546;8.644;2023-06-10T15:43:54;6.67;;;4.40;;
76846;SDS011;65813;49.546;8.644;2023-06-10T15:47:55;5.13;;;3.80;;
76846;SDS011;65813;49.546;8.644;2023-06-10T15:51:55;5.37;;;4.03;;
76846;SDS011;65813;49.546;8.644;2023-06-10T15:55:55;4.95;;;3.97;;
76846;SDS011;65813;49.546;8.644;2023-06-10T15:59:56;5.23;;;3.80;;
76846;SDS011;65813;49.546;8.644;2023-06-10T16:03:56;4.67;;;3.50;;
76846;SDS011;65813;49.546;8.644;2023-06-10T16:07:56;5.00;;;3.97;;
76846;SDS011;65813;49.546;8.644;2023-06-10T16:11:57;4.57;;;3.50;;
76846;SDS011;65813;49.546;8.644;2023-06-10T16:15:58;5.73;;;4.03;;
76846;SDS011;65813;49.546;8.644;2023-06-10T16:19:58;5.10;;;3.30;;
76846;SDS011;65813;49.546;8.644;2023-06-10T16:23:58;6.27;;;4.17;;
76846;SDS011;65813;49.546;8.644;2023-06-10T16:27:59;5.67;;;3.93;;
76846;SDS011;65813;49.546;8.644;2023-06-10T16:32:00;7.20;;;4.25;;
76846;SDS011;65813;49.546;8.644;2023-06-10T16:36:00;5.87;;;3.60;;
76846;SDS011;65813;49.546;8.644;2023-06-10T16:40:01;7.50;;;3.90;;
76846;SDS011;65813;49.546;8.644;2023-06-10T16:44:01;5.55;;;3.78;;
76846;SDS011;65813;49.546;8.644;2023-06-10T16:48:01;5.30;;;3.70;;
76846;SDS011;65813;49.546;8.644;2023-06-10T16:52:02;5.65;;;4.10;;
76846;SDS011;65813;49.546;8.644;2023-06-10T16:56:02;4.90;;;3.92;;
76846;SDS011;65813;49.546;8.644;2023-06-10T17:00:03;5.18;;;3.95;;
76846;SDS011;65813;49.546;8.644;2023-06-10T17:04:03;5.47;;;4.15;;
76846;SDS011;65813;49.546;8.644;2023-06-10T17:08:04;5.43;;;3.93;;
76846;SDS011;65813;49.546;8.644;2023-06-10T17:12:05;6.13;;;4.53;;
76846;SDS011;65813;49.546;8.644;2023-06-10T17:16:05;5.85;;;4.55;;
76846;SDS011;65813;49.546;8.644;2023-06-10T17:20:06;5.90;;;4.38;;
76846;SDS011;65813;49.546;8.644;2023-06-10T17:24:07;6.88;;;4.10;;
76846;SDS011;65813;49.546;8.644;2023-06-10T17:28:07;5.88;;;3.80;;
76846;SDS011;65813;49.546;8.644;2023-06-10T17:32:08;6.17;;;4.10;;
76846;SDS011;65813;49.546;8.644;2023-06-10T17:36:09;5.47;;;4.63;;
76846;SDS011;65813;49.546;8.644;2023-06-10T17:40:09;6.20;;;3.95;;
76846;SDS011;65813;49.546;8.644;2023-06-10T17:44:12;5.10;;;4.15;;
76846;SDS011;65813;49.546;8.644;2023-06-10T17:48:15;6.45;;;4.53;;
76846;SDS011;65813;49.546;8.644;2023-06-10T17:52:16;5.65;;;4.53;;
76846;SDS011;65813;49.546;8.644;2023-06-10T17:56:16;7.37;;;4.20;;
76846;SDS011;65813;49.546;8.644;2023-06-10T18:00:17;5.13;;;4.10;;
76846;SDS011;65813;49.546;8.644;2023-06-10T18:04:17;6.32;;;4.18;;
76846;SDS011;65813;49.546;8.644;2023-06-10T18:08:18;6.03;;;4.30;;
76846;SDS011;65813;49.546;8.644;2023-06-10T18:12:18;4.77;;;4.20;;
76846;SDS011;65813;49.546;8.644;2023-06-10T18:16:18;5.55;;;4.35;;
76846;SDS011;65813;49.546;8.644;2023-06-10T18:20:19;5.70;;;3.88;;
76846;SDS011;65813;49.546;8.644;2023-06-10T18:24:19;5.07;;;3.70;;
76846;SDS011;65813;49.546;8.644;2023-06-10T18:28:20;6.03;;;3.95;;
76846;SDS011;65813;49.546;8.644;2023-06-10T18:32:22;4.68;;;3.70;;
76846;SDS011;65813;49.546;8.644;2023-06-10T18:36:22;6.53;;;3.93;;
76846;SDS011;65813;49.546;8.644;2023-06-10T18:40:23;5.47;;;4.10;;
76846;SDS011;65813;49.546;8.644;2023-06-10T18:44:23;5.38;;;3.63;;
76846;SDS011;65813;49.546;8.644;2023-06-10T18:48:24;4.38;;;3.22;;
76846;SDS011;65813;49.546;8.644;2023-06-10T18:52:24;5.10;;;3.90;;
76846;SDS011;65813;49.546;8.644;2023-06-10T18:56:25;5.78;;;4.03;;
76846;SDS011;65813;49.546;8.644;2023-06-10T19:00:26;5.93;;;4.03;;
76846;SDS011;65813;49.546;8.644;2023-06-10T19:04:26;6.37;;;3.97;;
76846;SDS011;65813;49.546;8.644;2023-06-10T19:08:27;4.10;;;3.47;;
76846;SDS011;65813;49.546;8.644;2023-06-10T19:12:27;4.57;;;3.53;;
76846;SDS011;65813;49.546;8.644;2023-06-10T19:16:27;5.67;;;3.30;;
76846;SDS011;65813;49.546;8.644;2023-06-10T19:20:28;4.70;;;3.40;;
76846;SDS011;65813;49.546;8.644;2023-06-10T19:24:28;4.67;;;3.30;;
76846;SDS011;65813;49.546;8.644;2023-06-10T19:28:29;5.60;;;3.70;;
76846;SDS011;65813;49.546;8.644;2023-06-10T19:32:29;5.72;;;3.28;;
76846;SDS011;65813;49.546;8.644;2023-06-10T19:36:30;4.47;;;3.35;;
76846;SDS011;65813;49.546;8.644;2023-06-10T19:40:30;5.75;;;3.97;;
76846;SDS011;65813;49.546;8.644;2023-06-10T19:44:30;7.40;;;3.90;;
76846;SDS011;65813;49.546;8.644;2023-06-10T19:48:31;5.97;;;3.70;;
76846;SDS011;65813;49.546;8.644;2023-06-10T19:52:31;6.20;;;3.97;;
76846;SDS011;65813;49.546;8.644;2023-06-10T19:56:32;5.20;;;3.92;;
76846;SDS011;65813;49.546;8.644;2023-06-10T20:00:32;5.17;;;4.03;;
76846;SDS011;65813;49.546;8.644;2023-06-10T20:04:33;5.80;;;4.10;;
76846;SDS011;65813;49.546;8.644;2023-06-10T20:08:33;5.63;;;4.50;;
76846;SDS011;65813;49.546;8.644;2023-06-10T20:12:34;5.38;;;3.92;;
76846;SDS011;65813;49.546;8.644;2023-06-10T20:16:37;6.57;;;4.50;;
76846;SDS011;65813;49.546;8.644;2023-06-10T20:20:37;5.60;;;4.07;;
76846;SDS011;65813;49.546;8.644;2023-06-10T20:24:38;4.87;;;3.70;;
76846;SDS011;65813;49.546;8.644;2023-06-10T20:28:38;6.33;;;4.33;;
76846;SDS011;65813;49.546;8.644;2023-06-10T20:32:39;6.03;;;4.38;;
76846;SDS011;65813;49.546;8.644;2023-06-10T20:36:39;6.10;;;4.43;;
76846;SDS011;65813;49.546;8.644;2023-06-10T20:40:39;5.73;;;4.00;;
76846;SDS011;65813;49.546;8.644;2023-06-10T20:44:40;6.65;;;4.75;;
76846;SDS011;65813;49.546;8.644;2023-06-10T20:48:40;6.90;;;5.18;;
76846;SDS011;65813;49.546;8.644;2023-06-10T20:52:41;6.68;;;5.20;;
76846;SDS011;65813;49.546;8.644;2023-06-10T20:56:41;6.07;;;5.23;;
76846;SDS011;65813;49.546;8.644;2023-06-10T21:00:41;7.10;;;5.43;;
76846;SDS011;65813;49.546;8.644;2023-06-10T21:04:42;7.85;;;5.25;;
76846;SDS011;65813;49.546;8.644;2023-06-10T21:08:42;6.90;;;5.55;;
76846;SDS011;65813;49.546;8.644;2023-06-10T21:12:43;6.55;;;5.80;;
